Time;durP1;ratioP1;P1;durP2;ratioP2;P2;SDS_P1;SDS_P2;PMS_P1;PMS_P2;Temp;Humidity;BMP_temperature;BMP_pressure;BME280_temperature;BME280_humidity;BME280_pressure;Samples;Min_cycle;Max_cycle;Signal;HPM_P1;HPM_P2
2023/12/14 00:01:46;;;;;;;7.03;3.58;;;4.50;99.90;;;;;;4965187;28;20132;-71
2023/12/14 00:04:12;;;;;;;10.82;3.38;;;4.50;99.90;;;;;;4950762;28;20068;-71
2023/12/14 00:06:37;;;;;;;5.70;2.95;;;4.50;99.90;;;;;;4966073;28;20046;-71
2023/12/14 00:09:03;;;;;;;11.68;4.20;;;4.40;99.90;;;;;;4959104;28;20053;-71
2023/12/14 00:11:29;;;;;;;6.75;3.70;;;4.50;99.90;;;;;;4949753;28;20054;-71
2023/12/14 00:13:55;;;;;;;9.23;4.07;;;4.40;99.90;;;;;;4983523;28;20050;-71
2023/12/14 00:16:21;;;;;;;12.82;4.63;;;4.40;99.90;;;;;;4984580;28;20088;-71
2023/12/14 00:18:47;;;;;;;4.57;2.95;;;4.40;99.90;;;;;;4965661;28;20545;-71
2023/12/14 00:21:12;;;;;;;10.70;4.25;;;4.40;99.90;;;;;;4966423;28;20468;-71
2023/12/14 00:23:38;;;;;;;6.38;3.85;;;4.40;99.90;;;;;;4969685;28;20062;-71
2023/12/14 00:26:04;;;;;;;4.57;3.28;;;4.50;99.90;;;;;;4982695;28;20054;-71
2023/12/14 00:28:30;;;;;;;4.28;3.40;;;4.40;99.90;;;;;;4983428;28;20444;-71
2023/12/14 00:30:57;;;;;;;6.97;3.65;;;4.50;99.90;;;;;;4982950;28;20058;-71
2023/12/14 00:33:23;;;;;;;6.03;3.83;;;4.40;99.90;;;;;;4983699;28;20042;-71
2023/12/14 00:35:48;;;;;;;10.20;3.80;;;4.40;99.90;;;;;;4983566;28;20051;-71
2023/12/14 00:38:14;;;;;;;4.78;3.40;;;4.40;99.90;;;;;;4982138;28;20069;-71
2023/12/14 00:40:40;;;;;;;8.38;4.00;;;4.50;99.90;;;;;;4981470;28;20054;-71
2023/12/14 00:43:06;;;;;;;7.15;3.67;;;4.40;99.90;;;;;;4981267;28;20042;-71
2023/12/14 00:45:31;;;;;;;10.63;4.40;;;4.40;99.90;;;;;;4981583;28;20124;-71
2023/12/14 00:47:57;;;;;;;12.68;4.45;;;4.40;99.90;;;;;;4984365;28;20043;-71
2023/12/14 00:50:23;;;;;;;7.45;3.63;;;4.40;99.90;;;;;;4981824;28;20042;-71
2023/12/14 00:52:48;;;;;;;10.10;4.63;;;4.40;99.90;;;;;;4966221;28;20486;-71
2023/12/14 00:55:14;;;;;;;10.55;4.38;;;4.40;99.90;;;;;;4952587;28;20053;-71
2023/12/14 00:57:40;;;;;;;8.52;3.88;;;4.40;99.90;;;;;;4983640;28;20049;-71
2023/12/14 01:00:06;;;;;;;8.07;4.25;;;4.40;99.90;;;;;;4983165;28;20614;-71
2023/12/14 01:02:33;;;;;;;5.38;3.75;;;4.40;99.90;;;;;;4984852;28;20042;-71
2023/12/14 01:04:58;;;;;;;5.30;3.95;;;4.40;99.90;;;;;;4964342;28;20516;-71
2023/12/14 01:07:24;;;;;;;7.32;4.55;;;4.30;99.90;;;;;;4981214;28;20045;-71
2023/12/14 01:09:50;;;;;;;8.60;4.53;;;4.40;99.90;;;;;;4979421;28;20092;-71
2023/12/14 01:12:16;;;;;;;9.55;5.00;;;4.40;99.90;;;;;;4986906;28;20050;-71
2023/12/14 01:14:41;;;;;;;13.30;4.05;;;4.40;99.90;;;;;;4968886;28;20045;-71
2023/12/14 01:17:07;;;;;;;10.73;4.10;;;4.40;99.90;;;;;;4969760;28;20591;-71
2023/12/14 01:19:33;;;;;;;6.80;4.22;;;4.40;99.90;;;;;;4986603;28;20050;-71
2023/12/14 01:21:58;;;;;;;11.68;4.53;;;4.40;99.90;;;;;;4980056;28;20523;-71
2023/12/14 01:24:24;;;;;;;9.10;4.35;;;4.40;99.90;;;;;;4951679;28;20062;-71
2023/12/14 01:26:50;;;;;;;6.80;4.00;;;4.40;99.90;;;;;;4969798;28;20054;-71
2023/12/14 01:29:15;;;;;;;9.45;4.20;;;4.40;99.90;;;;;;4968779;28;20057;-71
2023/12/14 01:31:41;;;;;;;7.88;3.88;;;4.40;99.90;;;;;;4953159;28;20511;-71
2023/12/14 01:34:07;;;;;;;10.10;5.18;;;4.40;99.90;;;;;;4969057;28;20057;-71
2023/12/14 01:36:32;;;;;;;7.53;4.13;;;4.40;99.90;;;;;;4952499;28;20042;-71
2023/12/14 01:38:58;;;;;;;7.90;3.53;;;4.40;99.90;;;;;;4969687;28;20405;-71
2023/12/14 01:41:24;;;;;;;10.23;4.40;;;4.40;99.90;;;;;;4967779;28;20078;-71
2023/12/14 01:43:49;;;;;;;10.63;4.50;;;4.40;99.90;;;;;;4969768;28;20046;-71
2023/12/14 01:46:16;;;;;;;12.02;4.43;;;4.40;99.90;;;;;;4952100;28;20046;-71
2023/12/14 01:48:42;;;;;;;6.25;4.20;;;4.40;99.90;;;;;;4969667;28;20050;-71
2023/12/14 01:51:08;;;;;;;6.20;3.92;;;4.40;99.90;;;;;;4968538;28;20112;-71
2023/12/14 01:53:33;;;;;;;9.25;4.25;;;4.40;99.90;;;;;;4968265;28;20401;-71
2023/12/14 01:55:59;;;;;;;7.85;3.80;;;4.40;99.90;;;;;;4986636;28;20046;-71
2023/12/14 01:58:26;;;;;;;8.15;4.15;;;4.40;99.90;;;;;;4967933;28;20057;-71
2023/12/14 02:01:10;;;;;;;8.82;4.35;;;4.40;99.90;;;;;;4958605;28;20057;-71
2023/12/14 02:03:36;;;;;;;5.03;3.30;;;4.40;99.90;;;;;;4980138;28;20416;-71
2023/12/14 02:06:02;;;;;;;12.48;4.45;;;4.30;99.90;;;;;;4967768;28;20716;-71
2023/12/14 02:08:29;;;;;;;7.15;3.92;;;4.40;99.90;;;;;;4967906;28;20045;-71
2023/12/14 02:10:55;;;;;;;9.10;4.13;;;4.40;99.90;;;;;;4983783;28;20500;-71
2023/12/14 02:13:20;;;;;;;7.82;4.28;;;4.40;99.90;;;;;;4968541;28;20057;-71
2023/12/14 02:15:47;;;;;;;9.52;3.92;;;4.40;99.90;;;;;;4967531;28;20602;-71
2023/12/14 02:18:12;;;;;;;11.75;4.47;;;4.40;99.90;;;;;;4952620;28;20101;-71
2023/12/14 02:20:38;;;;;;;10.50;3.85;;;4.40;99.90;;;;;;4951815;28;20060;-71
2023/12/14 02:23:04;;;;;;;9.27;4.53;;;4.40;99.90;;;;;;4966955;28;20486;-71
2023/12/14 02:25:29;;;;;;;13.48;4.80;;;4.40;99.90;;;;;;4951361;28;20068;-71
2023/12/14 02:27:55;;;;;;;11.95;4.10;;;4.40;99.90;;;;;;4970584;28;20039;-71
2023/12/14 02:30:21;;;;;;;9.50;3.83;;;4.30;99.90;;;;;;4967766;28;20039;-71
2023/12/14 02:32:47;;;;;;;10.43;4.18;;;4.40;99.90;;;;;;4985121;28;20054;-71
2023/12/14 02:35:12;;;;;;;7.50;4.05;;;4.40;99.90;;;;;;4968674;28;20056;-71
2023/12/14 02:37:41;;;;;;;6.68;4.07;;;4.40;99.90;;;;;;4985998;28;20413;-71
2023/12/14 02:40:08;;;;;;;7.88;3.65;;;4.40;99.90;;;;;;4969224;28;20062;-71
2023/12/14 02:42:34;;;;;;;8.45;3.53;;;4.40;99.90;;;;;;4967588;28;20449;-71
2023/12/14 02:45:01;;;;;;;6.68;4.13;;;4.40;99.90;;;;;;4965082;28;20050;-71
2023/12/14 02:47:29;;;;;;;9.45;4.38;;;4.30;99.90;;;;;;4968255;28;20698;-71
2023/12/14 02:49:55;;;;;;;7.05;3.92;;;4.30;99.90;;;;;;4967139;28;20424;-71
2023/12/14 02:52:21;;;;;;;6.43;4.13;;;4.20;99.90;;;;;;4984204;28;20457;-71
2023/12/14 02:54:47;;;;;;;14.45;3.90;;;4.20;99.90;;;;;;4983857;28;20064;-71
2023/12/14 02:57:13;;;;;;;9.85;3.95;;;4.20;99.90;;;;;;4968080;28;20050;-71
2023/12/14 02:59:39;;;;;;;7.28;3.35;;;4.20;99.90;;;;;;4967682;28;20042;-72
2023/12/14 03:02:05;;;;;;;11.68;3.85;;;4.20;99.90;;;;;;4968503;28;20178;-71
2023/12/14 03:04:31;;;;;;;8.10;4.68;;;4.30;99.90;;;;;;4984954;28;20042;-71
2023/12/14 03:06:57;;;;;;;11.25;4.25;;;4.30;99.90;;;;;;4970575;28;20098;-71
2023/12/14 03:09:23;;;;;;;8.80;4.50;;;4.30;99.90;;;;;;4985299;28;20129;-71
2023/12/14 03:11:50;;;;;;;12.00;4.65;;;4.30;99.90;;;;;;4984370;28;20042;-71
2023/12/14 03:14:15;;;;;;;13.00;4.75;;;4.30;99.90;;;;;;4968088;28;20042;-71
2023/12/14 03:16:41;;;;;;;19.70;4.75;;;4.30;99.90;;;;;;4965741;28;20382;-71
2023/12/14 03:19:07;;;;;;;14.63;5.32;;;4.40;99.90;;;;;;4970563;28;20177;-71
2023/12/14 03:21:32;;;;;;;11.02;5.70;;;4.30;99.90;;;;;;4966377;28;20084;-71
2023/12/14 03:23:59;;;;;;;8.77;4.95;;;4.40;99.90;;;;;;4966608;28;20049;-71
2023/12/14 03:26:24;;;;;;;11.85;5.38;;;4.30;99.90;;;;;;4984625;28;20054;-70
2023/12/14 03:28:50;;;;;;;12.15;4.90;;;4.40;99.90;;;;;;4966756;28;20046;-71
2023/12/14 03:31:16;;;;;;;10.75;5.22;;;4.40;99.90;;;;;;4967463;28;20082;-71
2023/12/14 03:33:42;;;;;;;10.77;5.68;;;4.30;99.90;;;;;;4986517;28;20559;-71
2023/12/14 03:36:08;;;;;;;11.88;4.65;;;4.30;99.90;;;;;;4967539;28;20046;-71
2023/12/14 03:38:33;;;;;;;7.97;4.20;;;4.30;99.90;;;;;;4949812;28;20068;-71
2023/12/14 03:41:00;;;;;;;11.10;5.05;;;4.30;99.90;;;;;;4967365;28;20050;-71
2023/12/14 03:43:25;;;;;;;14.05;5.10;;;4.30;99.90;;;;;;4950713;28;20046;-71
2023/12/14 03:45:51;;;;;;;14.93;5.50;;;4.30;99.90;;;;;;4984073;28;20416;-71
2023/12/14 03:48:17;;;;;;;12.63;5.22;;;4.30;99.90;;;;;;4950537;28;20046;-71
2023/12/14 03:50:42;;;;;;;14.40;5.57;;;4.30;99.90;;;;;;4984241;28;20042;-71
2023/12/14 03:53:09;;;;;;;10.45;5.70;;;4.30;99.90;;;;;;4967097;28;20054;-71
2023/12/14 03:55:34;;;;;;;13.13;5.28;;;4.30;99.90;;;;;;4965615;28;20042;-71
2023/12/14 03:58:00;;;;;;;14.68;5.43;;;4.40;99.90;;;;;;4962155;28;20074;-71
2023/12/14 04:00:26;;;;;;;9.45;5.50;;;4.30;99.90;;;;;;4966219;28;20552;-71
2023/12/14 04:02:52;;;;;;;14.73;6.07;;;4.40;99.90;;;;;;4992093;28;20038;-71
2023/12/14 04:05:18;;;;;;;11.10;4.88;;;4.30;99.90;;;;;;4967621;28;20053;-71
2023/12/14 04:07:44;;;;;;;12.63;6.47;;;4.30;99.90;;;;;;4965546;28;20052;-71
2023/12/14 04:10:10;;;;;;;10.63;5.75;;;4.30;99.90;;;;;;4966745;28;20058;-71
2023/12/14 04:12:36;;;;;;;9.75;4.93;;;4.40;99.90;;;;;;4965173;28;20050;-71
2023/12/14 04:15:03;;;;;;;11.30;4.80;;;4.30;99.90;;;;;;4967267;28;20061;-71
2023/12/14 04:17:30;;;;;;;7.60;4.90;;;4.40;99.90;;;;;;4965511;28;20129;-71
2023/12/14 04:19:56;;;;;;;12.30;5.20;;;4.40;99.90;;;;;;4984303;28;20065;-71
2023/12/14 04:22:22;;;;;;;11.13;4.90;;;4.40;99.90;;;;;;4966447;28;20061;-71
2023/12/14 04:24:47;;;;;;;13.00;5.80;;;4.40;99.90;;;;;;4978982;28;20058;-71
2023/12/14 04:27:14;;;;;;;10.45;6.25;;;4.30;99.90;;;;;;4964193;28;20416;-71
2023/12/14 04:29:40;;;;;;;15.90;5.82;;;4.30;99.90;;;;;;4956617;28;20133;-71
2023/12/14 04:32:06;;;;;;;18.05;6.05;;;4.30;99.90;;;;;;4972709;28;20472;-71
2023/12/14 04:34:32;;;;;;;13.75;5.78;;;4.40;99.90;;;;;;4981072;28;20485;-71
2023/12/14 04:36:57;;;;;;;15.55;5.63;;;4.30;99.90;;;;;;4984742;28;20587;-71
2023/12/14 04:39:27;;;;;;;14.07;5.35;;;4.30;99.90;;;;;;4966302;28;20516;-71
2023/12/14 04:41:53;;;;;;;13.68;6.43;;;4.40;99.90;;;;;;4964838;28;20116;-71
2023/12/14 04:44:22;;;;;;;9.88;5.20;;;4.40;99.90;;;;;;4983244;28;20058;-71
2023/12/14 04:46:48;;;;;;;12.68;5.80;;;4.40;99.90;;;;;;4981288;28;20046;-71
2023/12/14 04:49:14;;;;;;;10.60;5.18;;;4.40;99.90;;;;;;4982590;28;20516;-71
2023/12/14 04:51:40;;;;;;;18.38;6.00;;;4.30;99.90;;;;;;4973059;28;20046;-71
2023/12/14 04:54:05;;;;;;;16.85;5.93;;;4.40;99.90;;;;;;4975291;28;20058;-71
2023/12/14 04:56:31;;;;;;;21.13;5.93;;;4.40;99.90;;;;;;4981642;28;20057;-71
2023/12/14 04:58:58;;;;;;;10.98;5.93;;;4.40;99.90;;;;;;4982035;28;20058;-71
2023/12/14 05:01:26;;;;;;;17.40;6.45;;;4.30;99.90;;;;;;4969912;28;20352;-71
2023/12/14 05:03:55;;;;;;;9.55;4.93;;;4.40;99.90;;;;;;4958162;28;20050;-71
2023/12/14 05:06:21;;;;;;;13.82;4.97;;;4.40;99.90;;;;;;4982780;28;20129;-71
2023/12/14 05:08:47;;;;;;;16.90;4.93;;;4.40;99.90;;;;;;4967469;28;20046;-71
2023/12/14 05:11:13;;;;;;;17.33;5.63;;;4.30;99.90;;;;;;4955854;28;20069;-71
2023/12/14 05:13:40;;;;;;;13.70;6.03;;;4.30;99.90;;;;;;4960129;28;20035;-71
2023/12/14 05:16:06;;;;;;;11.88;5.70;;;4.30;99.90;;;;;;4980553;28;20405;-71
2023/12/14 05:18:32;;;;;;;10.95;5.63;;;4.30;99.90;;;;;;4983959;28;20050;-71
2023/12/14 05:20:59;;;;;;;12.63;5.68;;;4.30;99.90;;;;;;4965268;28;20477;-71
2023/12/14 05:23:25;;;;;;;16.15;5.90;;;4.30;99.90;;;;;;4982391;28;20081;-71
2023/12/14 05:25:50;;;;;;;17.05;5.60;;;4.30;99.90;;;;;;4974922;28;20508;-71
2023/12/14 05:28:16;;;;;;;11.25;5.90;;;4.40;99.90;;;;;;4982587;28;20057;-71
2023/12/14 05:30:42;;;;;;;14.13;6.28;;;4.40;99.90;;;;;;4981228;28;20477;-71
2023/12/14 05:33:08;;;;;;;15.50;5.72;;;4.30;99.90;;;;;;4981289;28;20082;-71
2023/12/14 05:35:34;;;;;;;11.32;6.00;;;4.40;99.90;;;;;;4979748;28;20046;-71
2023/12/14 05:38:00;;;;;;;12.30;5.28;;;4.30;99.90;;;;;;4981466;28;20122;-71
2023/12/14 05:40:25;;;;;;;11.57;6.05;;;4.30;99.90;;;;;;4982736;28;20157;-71
2023/12/14 05:42:51;;;;;;;14.95;6.40;;;4.30;99.90;;;;;;4982054;28;20038;-71
2023/12/14 05:45:18;;;;;;;18.30;6.07;;;4.30;99.90;;;;;;4957546;28;20081;-72
2023/12/14 05:47:44;;;;;;;15.07;6.50;;;4.40;99.90;;;;;;4976699;28;20061;-71
2023/12/14 05:50:10;;;;;;;11.98;6.50;;;4.30;99.90;;;;;;4972150;28;20042;-71
2023/12/14 05:52:37;;;;;;;15.88;6.50;;;4.40;99.90;;;;;;4984743;28;20955;-71
2023/12/14 05:55:04;;;;;;;12.27;7.20;;;4.30;99.90;;;;;;4983436;28;20054;-71
2023/12/14 05:57:30;;;;;;;19.23;6.80;;;4.40;99.90;;;;;;4968280;28;20063;-71
2023/12/14 05:59:56;;;;;;;10.95;6.05;;;4.40;99.90;;;;;;4963616;28;20045;-71
2023/12/14 06:02:22;;;;;;;11.77;7.05;;;4.30;99.90;;;;;;4979102;28;20394;-71
2023/12/14 06:04:48;;;;;;;14.30;6.60;;;4.40;99.90;;;;;;4983994;28;20061;-71
2023/12/14 06:07:17;;;;;;;13.02;7.35;;;4.30;99.90;;;;;;4984882;28;20057;-71
2023/12/14 06:09:45;;;;;;;14.10;6.43;;;4.40;99.90;;;;;;4977213;28;20459;-71
2023/12/14 06:12:11;;;;;;;13.15;6.72;;;4.40;99.90;;;;;;4985521;28;20050;-71
2023/12/14 06:14:37;;;;;;;17.00;6.97;;;4.30;99.90;;;;;;4984759;28;20492;-71
2023/12/14 06:17:03;;;;;;;18.58;7.03;;;4.40;99.90;;;;;;4984112;28;20057;-71
2023/12/14 06:19:29;;;;;;;15.43;7.15;;;4.40;99.90;;;;;;4972795;28;20034;-71
2023/12/14 06:21:55;;;;;;;15.73;8.05;;;4.30;99.90;;;;;;4974915;28;20042;-71
2023/12/14 06:24:22;;;;;;;16.42;7.15;;;4.30;99.90;;;;;;4985061;28;20059;-71
2023/12/14 06:26:48;;;;;;;12.48;6.68;;;4.30;99.90;;;;;;4967731;28;20611;-71
2023/12/14 06:29:14;;;;;;;17.45;8.13;;;4.30;99.90;;;;;;4960586;28;20086;-71
2023/12/14 06:31:40;;;;;;;14.50;7.22;;;4.20;99.90;;;;;;4983262;28;20491;-71
2023/12/14 06:34:06;;;;;;;14.25;6.70;;;4.30;99.90;;;;;;4984040;28;20065;-71
2023/12/14 06:36:32;;;;;;;18.05;6.50;;;4.20;99.90;;;;;;4984525;28;20493;-71
2023/12/14 06:38:59;;;;;;;15.60;7.80;;;4.30;99.90;;;;;;4982725;28;20042;-71
2023/12/14 06:41:26;;;;;;;8.65;6.00;;;4.20;99.90;;;;;;4982703;28;20057;-71
2023/12/14 06:43:52;;;;;;;17.00;7.38;;;4.20;99.90;;;;;;4973459;28;20456;-71
2023/12/14 06:46:18;;;;;;;14.80;8.18;;;4.30;99.90;;;;;;4984522;28;20046;-71
2023/12/14 06:48:45;;;;;;;17.50;7.28;;;4.20;99.90;;;;;;4984412;28;20046;-71
2023/12/14 06:51:11;;;;;;;11.88;6.88;;;4.20;99.90;;;;;;4968679;28;20055;-71
2023/12/14 06:53:41;;;;;;;13.63;7.10;;;4.20;99.90;;;;;;4983825;28;20057;-71
2023/12/14 06:56:11;;;;;;;18.58;7.13;;;4.20;99.90;;;;;;4966890;28;20062;-71
2023/12/14 06:58:38;;;;;;;13.07;6.43;;;4.20;99.90;;;;;;4968591;28;20397;-71
2023/12/14 07:01:05;;;;;;;18.10;6.95;;;4.20;99.90;;;;;;4972382;28;20046;-71
2023/12/14 07:03:30;;;;;;;12.57;6.78;;;4.20;99.90;;;;;;4981396;28;20280;-71
2023/12/14 07:05:57;;;;;;;13.70;6.88;;;4.20;99.90;;;;;;4982771;28;20050;-71
2023/12/14 07:08:23;;;;;;;15.45;7.07;;;4.20;99.90;;;;;;4968357;28;20113;-71
2023/12/14 07:10:49;;;;;;;13.98;7.20;;;4.20;99.90;;;;;;4981358;28;20133;-71
2023/12/14 07:13:14;;;;;;;10.13;6.60;;;4.20;99.90;;;;;;4972209;28;20100;-71
2023/12/14 07:15:40;;;;;;;18.88;7.15;;;4.20;99.90;;;;;;4967904;28;20520;-71
2023/12/14 07:18:06;;;;;;;15.73;7.72;;;4.20;99.90;;;;;;4982610;28;20077;-71
2023/12/14 07:20:32;;;;;;;17.65;7.07;;;4.20;99.90;;;;;;4983997;28;20112;-71
2023/12/14 07:22:57;;;;;;;13.65;7.03;;;4.20;99.90;;;;;;4952114;28;20054;-71
2023/12/14 07:25:23;;;;;;;12.90;6.88;;;4.20;99.90;;;;;;4951273;28;20060;-71
2023/12/14 07:27:49;;;;;;;19.77;6.25;;;4.20;99.90;;;;;;4950881;28;20046;-71
2023/12/14 07:30:15;;;;;;;16.55;7.13;;;4.10;99.90;;;;;;4951018;28;20097;-71
2023/12/14 07:32:40;;;;;;;14.07;6.57;;;4.10;99.90;;;;;;4967200;28;20477;-71
2023/12/14 07:35:06;;;;;;;14.70;7.07;;;4.20;99.90;;;;;;4966379;28;20046;-71
2023/12/14 07:37:32;;;;;;;16.70;6.88;;;4.10;99.90;;;;;;4967777;28;20050;-71
2023/12/14 07:39:58;;;;;;;17.10;6.70;;;4.20;99.90;;;;;;4965873;28;20104;-71
2023/12/14 07:42:24;;;;;;;11.15;6.30;;;4.10;99.90;;;;;;4966924;28;20050;-71
2023/12/14 07:44:49;;;;;;;13.77;6.50;;;4.20;99.90;;;;;;4966456;28;20051;-71
2023/12/14 07:47:15;;;;;;;10.20;5.97;;;4.10;99.90;;;;;;4967085;28;20806;-71
2023/12/14 07:49:41;;;;;;;10.60;6.68;;;4.20;99.90;;;;;;4984589;28;20046;-71
2023/12/14 07:52:07;;;;;;;16.90;6.22;;;4.20;99.90;;;;;;4966183;28;20049;-71
2023/12/14 07:54:33;;;;;;;17.00;6.45;;;4.10;99.90;;;;;;4984907;28;20050;-71
2023/12/14 07:56:58;;;;;;;12.57;6.57;;;4.20;99.90;;;;;;4965908;28;20572;-71
2023/12/14 07:59:24;;;;;;;8.95;5.63;;;4.10;99.90;;;;;;4966758;28;20468;-72
2023/12/14 08:01:50;;;;;;;15.30;5.88;;;4.20;99.90;;;;;;4965392;28;20042;-71
2023/12/14 08:04:15;;;;;;;12.30;5.80;;;4.20;99.90;;;;;;4966649;28;20571;-71
2023/12/14 08:06:42;;;;;;;13.70;6.95;;;4.20;99.90;;;;;;4965167;28;20060;-71
2023/12/14 08:09:08;;;;;;;18.45;6.60;;;4.20;99.90;;;;;;4965645;28;20058;-71
2023/12/14 08:11:34;;;;;;;13.25;6.15;;;4.20;99.90;;;;;;4949888;28;20057;-71
2023/12/14 08:13:59;;;;;;;10.50;6.35;;;4.20;99.90;;;;;;4962413;28;20054;-71
2023/12/14 08:16:25;;;;;;;10.95;6.22;;;4.20;99.90;;;;;;4966995;28;20038;-71
2023/12/14 08:18:51;;;;;;;14.30;6.82;;;4.20;99.90;;;;;;4965547;28;20042;-71
2023/12/14 08:21:18;;;;;;;17.00;7.00;;;4.20;99.90;;;;;;4983334;28;20054;-71
2023/12/14 08:23:44;;;;;;;15.18;6.55;;;4.20;99.90;;;;;;4965585;28;20146;-71
2023/12/14 08:26:12;;;;;;;11.48;6.22;;;4.30;99.90;;;;;;4964025;28;20725;-71
2023/12/14 08:28:39;;;;;;;12.18;5.88;;;4.20;99.90;;;;;;4965285;28;20061;-71
2023/12/14 08:31:05;;;;;;;11.90;6.03;;;4.20;99.90;;;;;;4963221;28;20081;-71
2023/12/14 08:33:31;;;;;;;11.02;6.30;;;4.30;99.90;;;;;;4965411;28;20050;-71
2023/12/14 08:35:57;;;;;;;12.88;6.45;;;4.20;99.90;;;;;;4948318;28;20128;-71
2023/12/14 08:38:23;;;;;;;10.57;5.85;;;4.30;99.90;;;;;;4964761;28;20042;-71
2023/12/14 08:40:48;;;;;;;11.75;6.20;;;4.30;99.90;;;;;;4964536;28;20054;-71
2023/12/14 08:43:14;;;;;;;13.48;6.10;;;4.30;99.90;;;;;;4963994;28;20409;-71
2023/12/14 08:45:40;;;;;;;14.20;7.07;;;4.30;99.90;;;;;;4964688;28;20107;-71
2023/12/14 08:48:06;;;;;;;14.77;6.43;;;4.30;99.90;;;;;;4947811;28;20504;-71
2023/12/14 08:50:32;;;;;;;12.75;6.68;;;4.30;99.90;;;;;;4965178;28;20570;-71
2023/12/14 08:53:00;;;;;;;13.20;6.50;;;4.40;99.90;;;;;;4979185;28;20054;-71
2023/12/14 08:55:27;;;;;;;13.43;6.07;;;4.40;99.90;;;;;;4964160;28;20050;-71
2023/12/14 08:57:53;;;;;;;10.38;6.30;;;4.40;99.90;;;;;;4964666;28;20041;-71
2023/12/14 09:00:19;;;;;;;20.55;6.90;;;4.40;99.90;;;;;;4964760;28;20483;-72
2023/12/14 09:02:45;;;;;;;14.52;6.50;;;4.40;99.90;;;;;;4964467;28;20408;-71
2023/12/14 09:05:16;;;;;;;18.17;6.57;;;4.40;99.90;;;;;;4963834;28;20089;-72
2023/12/14 09:07:42;;;;;;;11.93;7.05;;;4.40;99.90;;;;;;4982742;28;20057;-71
2023/12/14 09:10:08;;;;;;;15.23;6.70;;;4.50;99.90;;;;;;4963865;28;20054;-71
2023/12/14 09:12:35;;;;;;;18.20;6.90;;;4.40;99.90;;;;;;4949309;28;20133;-71
2023/12/14 09:15:01;;;;;;;16.35;7.28;;;4.50;99.90;;;;;;4964056;28;20452;-71
2023/12/14 09:17:32;;;;;;;11.60;6.10;;;4.60;99.90;;;;;;4964761;28;20828;-71
2023/12/14 09:19:59;;;;;;;13.02;6.35;;;4.50;99.90;;;;;;4982603;28;20054;-71
2023/12/14 09:22:25;;;;;;;15.75;6.97;;;4.60;99.90;;;;;;4967120;28;20472;-71
2023/12/14 09:24:51;;;;;;;13.35;5.82;;;4.60;99.90;;;;;;4985468;28;20520;-71
2023/12/14 09:27:16;;;;;;;15.65;6.88;;;4.60;99.90;;;;;;4967011;28;20089;-71
2023/12/14 09:29:42;;;;;;;12.25;6.45;;;4.60;99.90;;;;;;4986802;28;20046;-71
2023/12/14 09:32:08;;;;;;;14.05;7.20;;;4.60;99.90;;;;;;4951270;28;20073;-71
2023/12/14 09:34:34;;;;;;;19.65;6.68;;;4.70;99.90;;;;;;4985022;28;20576;-71
2023/12/14 09:37:00;;;;;;;15.23;7.07;;;4.60;99.90;;;;;;4985771;28;20045;-71
2023/12/14 09:39:27;;;;;;;15.43;6.60;;;4.60;99.90;;;;;;4967391;28;20123;-71
2023/12/14 09:42:04;;;;;;;14.02;7.35;;;4.70;99.90;;;;;;4986029;28;20524;-71
2023/12/14 09:44:30;;;;;;;16.73;7.55;;;4.70;99.90;;;;;;4967070;28;20116;-71
2023/12/14 09:47:02;;;;;;;13.60;7.07;;;4.70;99.90;;;;;;4985515;28;20133;-71
2023/12/14 09:49:29;;;;;;;15.90;6.32;;;4.80;99.90;;;;;;4965842;28;21567;-71
2023/12/14 09:51:59;;;;;;;13.45;7.30;;;4.80;99.90;;;;;;4967585;28;20515;-71
2023/12/14 09:54:28;;;;;;;22.30;7.28;;;4.80;99.90;;;;;;4967674;28;20047;-71
2023/12/14 09:56:54;;;;;;;18.10;7.60;;;4.80;99.90;;;;;;4966816;28;20112;-71
2023/12/14 09:59:20;;;;;;;15.32;7.43;;;4.90;99.90;;;;;;4967498;28;20042;-71
2023/12/14 10:01:46;;;;;;;13.82;7.00;;;4.90;99.90;;;;;;4951068;28;20086;-71
2023/12/14 10:04:19;;;;;;;18.83;8.00;;;4.90;99.90;;;;;;4968383;28;20126;-72
2023/12/14 10:06:47;;;;;;;15.82;7.82;;;4.90;99.90;;;;;;4964129;28;20046;-71
2023/12/14 10:09:15;;;;;;;20.02;7.32;;;4.90;99.90;;;;;;4983198;28;20058;-71
2023/12/14 10:11:44;;;;;;;16.35;6.97;;;5.00;99.90;;;;;;4977092;28;20137;-71
2023/12/14 10:14:27;;;;;;;12.23;7.25;;;4.90;99.90;;;;;;4984169;28;20050;-71
2023/12/14 10:16:53;;;;;;;15.38;6.55;;;5.00;99.90;;;;;;4951125;28;20149;-71
2023/12/14 10:19:19;;;;;;;16.20;7.20;;;5.00;99.90;;;;;;4998686;28;20543;-71
2023/12/14 10:21:49;;;;;;;18.48;7.25;;;5.00;99.90;;;;;;4941905;28;20401;-71
2023/12/14 10:24:16;;;;;;;14.63;7.43;;;5.00;99.90;;;;;;4974510;28;20060;-71
2023/12/14 10:26:45;;;;;;;19.38;8.38;;;5.00;99.90;;;;;;4966595;28;20046;-71
2023/12/14 10:29:10;;;;;;;11.02;6.60;;;5.00;99.90;;;;;;4967817;28;20124;-72
2023/12/14 10:31:39;;;;;;;14.00;7.00;;;5.00;99.90;;;;;;4965727;28;20046;-71
2023/12/14 10:34:05;;;;;;;16.08;7.20;;;5.00;99.90;;;;;;4967269;28;20050;-71
2023/12/14 10:36:32;;;;;;;15.98;6.78;;;5.10;99.90;;;;;;4979062;28;20061;-71
2023/12/14 10:39:00;;;;;;;15.15;7.10;;;5.10;99.90;;;;;;4983614;28;20058;-71
2023/12/14 10:41:27;;;;;;;16.58;7.60;;;5.10;99.90;;;;;;4965321;28;20058;-71
2023/12/14 10:43:56;;;;;;;13.60;7.05;;;5.10;99.90;;;;;;4984064;28;20096;-71
2023/12/14 10:46:23;;;;;;;18.57;7.77;;;5.10;99.90;;;;;;4966458;28;20058;-71
2023/12/14 10:48:50;;;;;;;21.20;7.15;;;5.10;99.90;;;;;;4976342;28;20823;-71
2023/12/14 10:51:23;;;;;;;16.80;7.10;;;5.20;99.90;;;;;;4966948;28;20409;-71
2023/12/14 10:53:51;;;;;;;17.33;7.35;;;5.20;99.90;;;;;;4963387;28;20089;-71
2023/12/14 10:56:18;;;;;;;11.23;6.35;;;5.20;99.90;;;;;;4966747;28;20553;-71
2023/12/14 10:58:54;;;;;;;16.35;6.80;;;5.20;99.90;;;;;;4949102;28;20066;-71
2023/12/14 11:01:26;;;;;;;14.23;6.57;;;5.20;99.90;;;;;;4984033;28;20112;-71
2023/12/14 11:03:56;;;;;;;11.43;6.32;;;5.20;99.90;;;;;;4962904;28;20093;-71
2023/12/14 11:06:33;;;;;;;14.02;7.47;;;5.20;99.90;;;;;;4966773;28;20419;-71
2023/12/14 11:09:08;;;;;;;11.25;6.80;;;5.30;99.90;;;;;;4949838;28;20058;-71
2023/12/14 11:11:53;;;;;;;12.15;6.80;;;5.30;99.90;;;;;;4981704;28;20050;-72
2023/12/14 11:14:27;;;;;;;13.45;7.13;;;5.30;99.90;;;;;;4982584;28;20497;-71
2023/12/14 11:16:56;;;;;;;14.15;6.65;;;5.30;99.90;;;;;;4982389;28;20493;-71
2023/12/14 11:19:21;;;;;;;15.77;7.47;;;5.30;99.90;;;;;;4978537;28;20657;-71
2023/12/14 11:21:48;;;;;;;15.60;7.38;;;5.20;99.90;;;;;;4987762;28;20050;-71
2023/12/14 11:24:14;;;;;;;12.95;6.88;;;5.30;99.90;;;;;;4982409;28;20054;-71
2023/12/14 11:26:54;;;;;;;10.45;6.88;;;5.30;99.90;;;;;;4978220;28;20047;-71
2023/12/14 11:29:22;;;;;;;18.73;7.38;;;5.30;99.90;;;;;;4963046;28;20124;-71
2023/12/14 11:31:48;;;;;;;19.83;6.97;;;5.30;99.90;;;;;;4964369;28;20034;-71
2023/12/14 11:34:39;;;;;;;13.70;6.68;;;5.30;99.90;;;;;;4990959;28;20108;-71
2023/12/14 11:37:06;;;;;;;9.68;6.07;;;5.30;99.90;;;;;;4972789;23;20440;-71
2023/12/14 11:39:56;;;;;;;16.65;5.97;;;5.30;99.90;;;;;;4950418;28;20073;-71
2023/12/14 11:42:22;;;;;;;15.80;6.75;;;5.30;99.90;;;;;;4963510;28;20053;-71
2023/12/14 11:44:55;;;;;;;10.82;6.28;;;5.20;99.90;;;;;;4961969;28;20060;-71
2023/12/14 11:47:21;;;;;;;9.48;5.78;;;5.20;99.90;;;;;;4962625;28;20136;-71
2023/12/14 11:49:47;;;;;;;13.77;6.47;;;5.20;99.90;;;;;;4962283;28;20086;-71
2023/12/14 11:52:13;;;;;;;12.07;6.57;;;5.20;99.90;;;;;;4964108;28;20046;-71
2023/12/14 11:54:39;;;;;;;16.30;6.65;;;5.20;99.90;;;;;;4960164;28;20054;-71
2023/12/14 11:57:09;;;;;;;13.90;6.85;;;5.20;99.90;;;;;;4989469;28;20093;-71
2023/12/14 11:59:39;;;;;;;13.77;6.55;;;5.10;99.90;;;;;;4965904;28;20408;-71
2023/12/14 12:02:24;;;;;;;12.75;6.85;;;5.10;99.90;;;;;;4955461;28;20108;-71
2023/12/14 12:04:52;;;;;;;15.05;7.18;;;5.10;99.90;;;;;;4971333;28;20485;-71
2023/12/14 12:07:37;;;;;;;15.95;7.05;;;5.20;99.90;;;;;;4951018;28;20081;-71
2023/12/14 12:10:31;;;;;;;16.80;7.22;;;5.20;99.90;;;;;;4966027;28;20050;-71
2023/12/14 12:13:18;;;;;;;19.13;7.18;;;5.20;99.90;;;;;;4963588;28;20495;-71
2023/12/14 12:15:44;;;;;;;13.50;7.63;;;5.20;99.90;;;;;;4981463;28;20052;-71
2023/12/14 12:18:29;;;;;;;12.93;6.72;;;5.20;99.90;;;;;;4949566;28;20897;-71
2023/12/14 12:21:03;;;;;;;16.13;7.10;;;5.30;99.90;;;;;;4961952;28;20057;-71
2023/12/14 12:24:22;;;;;;;13.80;7.40;;;5.30;99.90;;;;;;4949757;28;20502;-71
2023/12/14 12:26:48;;;;;;;13.00;7.35;;;5.30;99.90;;;;;;4948074;28;20126;-71
2023/12/14 12:29:37;;;;;;;17.83;7.78;;;5.30;99.90;;;;;;4950429;28;20046;-71
2023/12/14 12:32:04;;;;;;;18.10;9.47;;;5.30;99.90;;;;;;4949591;28;20085;-71
2023/12/14 12:35:01;;;;;;;17.92;8.95;;;5.30;99.90;;;;;;4965873;28;20086;-71
2023/12/14 12:37:59;;;;;;;22.73;9.23;;;5.30;99.90;;;;;;4945260;28;20937;-71
2023/12/14 12:40:27;;;;;;;19.92;8.60;;;5.30;99.90;;;;;;4960085;28;20435;-71
2023/12/14 12:42:54;;;;;;;18.25;8.10;;;5.30;99.90;;;;;;4949117;28;20065;-71
2023/12/14 12:52:01;;;;;;;16.58;7.40;;;5.40;99.90;;;;;;4976817;23;20409;-71
2023/12/14 12:54:26;;;;;;;17.67;7.88;;;5.50;99.90;;;;;;4947661;28;20485;-71
2023/12/14 12:56:53;;;;;;;14.98;7.53;;;5.50;99.90;;;;;;4968691;28;20120;-71